sensor_id;sensor_type;location;lat;lon;timestamp;P1;durP1;ratioP1;P2;durP2;ratioP2
2850;SDS011;1433;49.976;8.342;2023-03-14T00:00:49;3.00;;;1.30;;
2850;SDS011;1433;49.976;8.342;2023-03-14T00:03:16;2.40;;;1.43;;
2850;SDS011;1433;49.976;8.342;2023-03-14T00:05:44;2.03;;;1.20;;
2850;SDS011;1433;49.976;8.342;2023-03-14T00:08:10;1.70;;;1.37;;
2850;SDS011;1433;49.976;8.342;2023-03-14T00:10:37;1.87;;;1.63;;
2850;SDS011;1433;49.976;8.342;2023-03-14T00:13:03;2.83;;;1.90;;
2850;SDS011;1433;49.976;8.342;2023-03-14T00:15:29;3.60;;;1.67;;
2850;SDS011;1433;49.976;8.342;2023-03-14T00:17:57;3.27;;;1.47;;
2850;SDS011;1433;49.976;8.342;2023-03-14T00:20:23;1.87;;;1.63;;
2850;SDS011;1433;49.976;8.342;2023-03-14T00:22:49;2.20;;;1.77;;
2850;SDS011;1433;49.976;8.342;2023-03-14T00:25:15;3.20;;;1.70;;
2850;SDS011;1433;49.976;8.342;2023-03-14T00:27:42;2.50;;;1.80;;
2850;SDS011;1433;49.976;8.342;2023-03-14T00:30:08;3.10;;;2.30;;
2850;SDS011;1433;49.976;8.342;2023-03-14T00:32:35;2.03;;;1.77;;
2850;SDS011;1433;49.976;8.342;2023-03-14T00:35:03;3.83;;;1.80;;
2850;SDS011;1433;49.976;8.342;2023-03-14T00:37:30;2.87;;;1.83;;
2850;SDS011;1433;49.976;8.342;2023-03-14T00:39:56;4.47;;;2.30;;
2850;SDS011;1433;49.976;8.342;2023-03-14T00:42:25;3.67;;;3.13;;
2850;SDS011;1433;49.976;8.342;2023-03-14T00:44:51;3.40;;;1.87;;
2850;SDS011;1433;49.976;8.342;2023-03-14T00:47:17;4.03;;;2.20;;
2850;SDS011;1433;49.976;8.342;2023-03-14T00:49:43;2.67;;;1.90;;
2850;SDS011;1433;49.976;8.342;2023-03-14T00:52:09;4.23;;;1.90;;
2850;SDS011;1433;49.976;8.342;2023-03-14T00:54:36;6.30;;;2.03;;
2850;SDS011;1433;49.976;8.342;2023-03-14T00:57:02;5.50;;;2.33;;
2850;SDS011;1433;49.976;8.342;2023-03-14T00:59:28;4.53;;;1.60;;
2850;SDS011;1433;49.976;8.342;2023-03-14T01:01:55;5.47;;;2.20;;
2850;SDS011;1433;49.976;8.342;2023-03-14T01:04:21;4.70;;;2.03;;
2850;SDS011;1433;49.976;8.342;2023-03-14T01:06:47;5.03;;;2.20;;
2850;SDS011;1433;49.976;8.342;2023-03-14T01:09:13;9.07;;;2.20;;
2850;SDS011;1433;49.976;8.342;2023-03-14T01:11:40;5.57;;;2.83;;
2850;SDS011;1433;49.976;8.342;2023-03-14T01:14:08;3.77;;;2.67;;
2850;SDS011;1433;49.976;8.342;2023-03-14T01:16:34;5.93;;;2.63;;
2850;SDS011;1433;49.976;8.342;2023-03-14T01:19:01;4.03;;;1.97;;
2850;SDS011;1433;49.976;8.342;2023-03-14T01:21:29;11.67;;;2.27;;
2850;SDS011;1433;49.976;8.342;2023-03-14T01:23:59;5.30;;;2.30;;
2850;SDS011;1433;49.976;8.342;2023-03-14T01:26:29;3.40;;;2.37;;
2850;SDS011;1433;49.976;8.342;2023-03-14T01:28:57;1.87;;;1.77;;
2850;SDS011;1433;49.976;8.342;2023-03-14T01:31:25;5.77;;;1.53;;
2850;SDS011;1433;49.976;8.342;2023-03-14T01:33:52;3.27;;;2.00;;
2850;SDS011;1433;49.976;8.342;2023-03-14T01:36:18;5.47;;;2.50;;
2850;SDS011;1433;49.976;8.342;2023-03-14T01:38:46;2.10;;;1.87;;
2850;SDS011;1433;49.976;8.342;2023-03-14T01:41:15;2.97;;;1.87;;
2850;SDS011;1433;49.976;8.342;2023-03-14T01:43:44;3.30;;;2.10;;
2850;SDS011;1433;49.976;8.342;2023-03-14T01:46:13;6.20;;;2.23;;
2850;SDS011;1433;49.976;8.342;2023-03-14T01:48:47;4.10;;;1.83;;
2850;SDS011;1433;49.976;8.342;2023-03-14T01:51:20;5.77;;;1.63;;
2850;SDS011;1433;49.976;8.342;2023-03-14T01:54:15;2.50;;;2.07;;
2850;SDS011;1433;49.976;8.342;2023-03-14T01:56:44;4.80;;;2.40;;
2850;SDS011;1433;49.976;8.342;2023-03-14T01:59:13;5.23;;;2.30;;
2850;SDS011;1433;49.976;8.342;2023-03-14T02:01:40;3.53;;;2.30;;
2850;SDS011;1433;49.976;8.342;2023-03-14T02:04:10;4.50;;;2.20;;
2850;SDS011;1433;49.976;8.342;2023-03-14T02:06:44;3.57;;;1.90;;
2850;SDS011;1433;49.976;8.342;2023-03-14T02:09:19;6.47;;;2.37;;
2850;SDS011;1433;49.976;8.342;2023-03-14T02:11:46;3.43;;;1.90;;
2850;SDS011;1433;49.976;8.342;2023-03-14T02:14:26;8.00;;;2.33;;
2850;SDS011;1433;49.976;8.342;2023-03-14T02:17:17;8.67;;;2.37;;
2850;SDS011;1433;49.976;8.342;2023-03-14T02:23:08;2.53;;;1.93;;
2850;SDS011;1433;49.976;8.342;2023-03-14T02:25:38;5.73;;;2.33;;
2850;SDS011;1433;49.976;8.342;2023-03-14T02:28:14;2.67;;;1.90;;
2850;SDS011;1433;49.976;8.342;2023-03-14T02:30:41;2.37;;;1.57;;
2850;SDS011;1433;49.976;8.342;2023-03-14T02:33:10;2.00;;;1.80;;
2850;SDS011;1433;49.976;8.342;2023-03-14T02:41:14;5.47;;;2.13;;
2850;SDS011;1433;49.976;8.342;2023-03-14T02:43:43;5.43;;;2.33;;
2850;SDS011;1433;49.976;8.342;2023-03-14T02:46:12;3.33;;;2.30;;
2850;SDS011;1433;49.976;8.342;2023-03-14T02:48:53;4.73;;;2.20;;
2850;SDS011;1433;49.976;8.342;2023-03-14T02:51:23;6.97;;;2.30;;
2850;SDS011;1433;49.976;8.342;2023-03-14T02:53:53;2.43;;;1.80;;
2850;SDS011;1433;49.976;8.342;2023-03-14T02:56:20;2.93;;;1.97;;
2850;SDS011;1433;49.976;8.342;2023-03-14T02:58:46;4.93;;;1.87;;
2850;SDS011;1433;49.976;8.342;2023-03-14T03:01:20;2.47;;;2.17;;
2850;SDS011;1433;49.976;8.342;2023-03-14T03:03:46;7.77;;;2.90;;
2850;SDS011;1433;49.976;8.342;2023-03-14T03:06:12;5.63;;;2.73;;
2850;SDS011;1433;49.976;8.342;2023-03-14T03:08:38;7.33;;;1.97;;
2850;SDS011;1433;49.976;8.342;2023-03-14T03:11:05;5.40;;;2.20;;
2850;SDS011;1433;49.976;8.342;2023-03-14T03:13:32;2.83;;;1.47;;
2850;SDS011;1433;49.976;8.342;2023-03-14T03:16:00;4.63;;;2.30;;
2850;SDS011;1433;49.976;8.342;2023-03-14T03:18:27;4.60;;;2.47;;
2850;SDS011;1433;49.976;8.342;2023-03-14T03:20:53;5.13;;;2.17;;
2850;SDS011;1433;49.976;8.342;2023-03-14T03:23:19;5.27;;;1.90;;
2850;SDS011;1433;49.976;8.342;2023-03-14T03:25:48;6.43;;;2.73;;
2850;SDS011;1433;49.976;8.342;2023-03-14T03:28:15;5.53;;;2.27;;
2850;SDS011;1433;49.976;8.342;2023-03-14T03:30:42;2.87;;;1.57;;
2850;SDS011;1433;49.976;8.342;2023-03-14T03:33:09;5.90;;;2.50;;
2850;SDS011;1433;49.976;8.342;2023-03-14T03:35:46;3.63;;;1.67;;
2850;SDS011;1433;49.976;8.342;2023-03-14T03:38:08;3.50;;;2.00;;
2850;SDS011;1433;49.976;8.342;2023-03-14T03:40:36;5.13;;;1.87;;
2850;SDS011;1433;49.976;8.342;2023-03-14T03:43:03;9.33;;;3.20;;
2850;SDS011;1433;49.976;8.342;2023-03-14T03:45:30;4.80;;;2.53;;
2850;SDS011;1433;49.976;8.342;2023-03-14T03:47:56;7.83;;;2.30;;
2850;SDS011;1433;49.976;8.342;2023-03-14T03:50:23;5.90;;;2.27;;
2850;SDS011;1433;49.976;8.342;2023-03-14T03:52:49;4.20;;;2.17;;
2850;SDS011;1433;49.976;8.342;2023-03-14T03:55:15;3.30;;;1.90;;
2850;SDS011;1433;49.976;8.342;2023-03-14T03:57:42;3.97;;;2.30;;
2850;SDS011;1433;49.976;8.342;2023-03-14T04:00:09;6.17;;;2.03;;
2850;SDS011;1433;49.976;8.342;2023-03-14T04:02:40;3.50;;;2.20;;
2850;SDS011;1433;49.976;8.342;2023-03-14T04:05:08;2.87;;;1.60;;
2850;SDS011;1433;49.976;8.342;2023-03-14T04:07:36;3.07;;;1.97;;
2850;SDS011;1433;49.976;8.342;2023-03-14T04:10:03;2.93;;;2.20;;
2850;SDS011;1433;49.976;8.342;2023-03-14T04:12:35;5.10;;;2.53;;
2850;SDS011;1433;49.976;8.342;2023-03-14T04:15:03;3.73;;;1.70;;
2850;SDS011;1433;49.976;8.342;2023-03-14T04:17:30;3.70;;;1.70;;
2850;SDS011;1433;49.976;8.342;2023-03-14T04:19:57;5.40;;;1.93;;
2850;SDS011;1433;49.976;8.342;2023-03-14T04:22:25;4.77;;;1.70;;
2850;SDS011;1433;49.976;8.342;2023-03-14T04:24:52;6.63;;;2.30;;
2850;SDS011;1433;49.976;8.342;2023-03-14T04:27:20;7.03;;;2.13;;
2850;SDS011;1433;49.976;8.342;2023-03-14T04:29:47;1.53;;;1.40;;
2850;SDS011;1433;49.976;8.342;2023-03-14T04:32:15;4.00;;;1.63;;
2850;SDS011;1433;49.976;8.342;2023-03-14T04:34:41;2.20;;;1.63;;
2850;SDS011;1433;49.976;8.342;2023-03-14T04:37:08;4.33;;;1.83;;
2850;SDS011;1433;49.976;8.342;2023-03-14T04:39:36;2.70;;;2.20;;
2850;SDS011;1433;49.976;8.342;2023-03-14T04:42:04;6.43;;;2.50;;
2850;SDS011;1433;49.976;8.342;2023-03-14T04:44:30;3.10;;;1.90;;
2850;SDS011;1433;49.976;8.342;2023-03-14T04:46:56;2.70;;;1.80;;
2850;SDS011;1433;49.976;8.342;2023-03-14T04:49:23;3.53;;;1.43;;
2850;SDS011;1433;49.976;8.342;2023-03-14T04:51:49;1.80;;;1.40;;
2850;SDS011;1433;49.976;8.342;2023-03-14T04:54:20;5.60;;;2.10;;
2850;SDS011;1433;49.976;8.342;2023-03-14T04:56:48;4.47;;;1.50;;
2850;SDS011;1433;49.976;8.342;2023-03-14T04:59:14;2.47;;;1.63;;
2850;SDS011;1433;49.976;8.342;2023-03-14T05:01:41;1.97;;;1.20;;
2850;SDS011;1433;49.976;8.342;2023-03-14T05:04:27;3.80;;;1.90;;
2850;SDS011;1433;49.976;8.342;2023-03-14T05:06:58;3.83;;;2.07;;
2850;SDS011;1433;49.976;8.342;2023-03-14T05:09:35;4.77;;;1.73;;
2850;SDS011;1433;49.976;8.342;2023-03-14T05:12:20;4.37;;;1.40;;
2850;SDS011;1433;49.976;8.342;2023-03-14T05:15:00;4.00;;;1.67;;
2850;SDS011;1433;49.976;8.342;2023-03-14T05:17:34;4.30;;;1.87;;
2850;SDS011;1433;49.976;8.342;2023-03-14T05:20:08;6.53;;;2.07;;
2850;SDS011;1433;49.976;8.342;2023-03-14T05:22:41;3.30;;;1.80;;
2850;SDS011;1433;49.976;8.342;2023-03-14T05:25:10;2.73;;;1.93;;
2850;SDS011;1433;49.976;8.342;2023-03-14T05:27:54;1.73;;;1.63;;
2850;SDS011;1433;49.976;8.342;2023-03-14T05:30:26;5.07;;;1.70;;
2850;SDS011;1433;49.976;8.342;2023-03-14T05:33:04;2.53;;;1.20;;
2850;SDS011;1433;49.976;8.342;2023-03-14T05:35:38;4.03;;;2.40;;
2850;SDS011;1433;49.976;8.342;2023-03-14T05:38:23;2.60;;;2.10;;
2850;SDS011;1433;49.976;8.342;2023-03-14T05:41:00;2.97;;;1.40;;
2850;SDS011;1433;49.976;8.342;2023-03-14T05:43:44;5.60;;;2.27;;
2850;SDS011;1433;49.976;8.342;2023-03-14T05:46:29;3.43;;;1.27;;
2850;SDS011;1433;49.976;8.342;2023-03-14T05:49:03;2.57;;;1.30;;
2850;SDS011;1433;49.976;8.342;2023-03-14T05:51:31;7.00;;;1.53;;
2850;SDS011;1433;49.976;8.342;2023-03-14T05:54:04;4.70;;;1.77;;
2850;SDS011;1433;49.976;8.342;2023-03-14T05:56:48;3.10;;;1.50;;
2850;SDS011;1433;49.976;8.342;2023-03-14T05:59:24;3.40;;;1.73;;
2850;SDS011;1433;49.976;8.342;2023-03-14T06:01:59;4.70;;;1.53;;
2850;SDS011;1433;49.976;8.342;2023-03-14T06:04:27;1.40;;;1.30;;
2850;SDS011;1433;49.976;8.342;2023-03-14T06:06:55;3.17;;;1.93;;
2850;SDS011;1433;49.976;8.342;2023-03-14T06:09:21;4.80;;;2.10;;
2850;SDS011;1433;49.976;8.342;2023-03-14T06:11:50;4.33;;;1.70;;
2850;SDS011;1433;49.976;8.342;2023-03-14T06:14:17;3.77;;;1.73;;
2850;SDS011;1433;49.976;8.342;2023-03-14T06:16:45;2.83;;;2.37;;
2850;SDS011;1433;49.976;8.342;2023-03-14T06:19:14;2.83;;;1.43;;
2850;SDS011;1433;49.976;8.342;2023-03-14T06:21:41;4.40;;;1.60;;
2850;SDS011;1433;49.976;8.342;2023-03-14T06:24:08;5.60;;;1.67;;
2850;SDS011;1433;49.976;8.342;2023-03-14T06:26:36;8.47;;;2.20;;
2850;SDS011;1433;49.976;8.342;2023-03-14T06:29:04;3.17;;;1.70;;
2850;SDS011;1433;49.976;8.342;2023-03-14T06:31:32;4.07;;;1.50;;
2850;SDS011;1433;49.976;8.342;2023-03-14T06:34:00;4.70;;;1.93;;
2850;SDS011;1433;49.976;8.342;2023-03-14T06:36:29;3.90;;;1.90;;
2850;SDS011;1433;49.976;8.342;2023-03-14T06:38:56;4.10;;;1.67;;
2850;SDS011;1433;49.976;8.342;2023-03-14T06:41:22;2.10;;;1.40;;
2850;SDS011;1433;49.976;8.342;2023-03-14T06:43:50;1.87;;;1.40;;
2850;SDS011;1433;49.976;8.342;2023-03-14T06:46:17;3.23;;;1.50;;
2850;SDS011;1433;49.976;8.342;2023-03-14T06:48:43;4.07;;;1.50;;
2850;SDS011;1433;49.976;8.342;2023-03-14T06:51:11;4.97;;;1.50;;
2850;SDS011;1433;49.976;8.342;2023-03-14T06:53:37;2.10;;;1.70;;
2850;SDS011;1433;49.976;8.342;2023-03-14T06:56:04;2.20;;;1.37;;
2850;SDS011;1433;49.976;8.342;2023-03-14T06:58:32;2.23;;;1.27;;
2850;SDS011;1433;49.976;8.342;2023-03-14T07:00:59;2.63;;;1.60;;
2850;SDS011;1433;49.976;8.342;2023-03-14T07:03:27;7.20;;;1.50;;
2850;SDS011;1433;49.976;8.342;2023-03-14T07:05:55;1.60;;;1.20;;
2850;SDS011;1433;49.976;8.342;2023-03-14T07:08:21;1.67;;;1.20;;
2850;SDS011;1433;49.976;8.342;2023-03-14T07:10:47;1.53;;;1.30;;
2850;SDS011;1433;49.976;8.342;2023-03-14T07:13:14;1.60;;;1.20;;
2850;SDS011;1433;49.976;8.342;2023-03-14T07:15:42;2.03;;;1.17;;
2850;SDS011;1433;49.976;8.342;2023-03-14T07:18:09;4.80;;;1.50;;
2850;SDS011;1433;49.976;8.342;2023-03-14T07:20:35;1.73;;;1.40;;
2850;SDS011;1433;49.976;8.342;2023-03-14T07:23:01;1.97;;;1.17;;
2850;SDS011;1433;49.976;8.342;2023-03-14T07:25:36;3.93;;;1.20;;
2850;SDS011;1433;49.976;8.342;2023-03-14T07:28:03;3.53;;;2.00;;
2850;SDS011;1433;49.976;8.342;2023-03-14T07:30:29;2.10;;;1.30;;
2850;SDS011;1433;49.976;8.342;2023-03-14T07:32:57;1.97;;;1.77;;
2850;SDS011;1433;49.976;8.342;2023-03-14T07:35:25;4.80;;;1.87;;
2850;SDS011;1433;49.976;8.342;2023-03-14T07:37:52;1.70;;;1.60;;
2850;SDS011;1433;49.976;8.342;2023-03-14T07:40:20;5.80;;;2.20;;
2850;SDS011;1433;49.976;8.342;2023-03-14T07:42:47;4.40;;;1.83;;
2850;SDS011;1433;49.976;8.342;2023-03-14T07:45:18;2.13;;;1.53;;
2850;SDS011;1433;49.976;8.342;2023-03-14T07:47:44;3.00;;;1.60;;
2850;SDS011;1433;49.976;8.342;2023-03-14T07:50:11;1.97;;;1.60;;
2850;SDS011;1433;49.976;8.342;2023-03-14T07:52:37;5.07;;;1.70;;
2850;SDS011;1433;49.976;8.342;2023-03-14T07:55:03;1.50;;;1.37;;
2850;SDS011;1433;49.976;8.342;2023-03-14T07:57:31;4.00;;;1.80;;
2850;SDS011;1433;49.976;8.342;2023-03-14T07:59:57;1.60;;;1.27;;
2850;SDS011;1433;49.976;8.342;2023-03-14T08:02:23;5.10;;;1.77;;
2850;SDS011;1433;49.976;8.342;2023-03-14T08:04:50;10.43;;;1.73;;
2850;SDS011;1433;49.976;8.342;2023-03-14T08:07:16;1.80;;;1.50;;
2850;SDS011;1433;49.976;8.342;2023-03-14T08:09:42;2.20;;;1.30;;
2850;SDS011;1433;49.976;8.342;2023-03-14T08:12:08;2.63;;;1.63;;
2850;SDS011;1433;49.976;8.342;2023-03-14T08:14:35;1.97;;;1.43;;
2850;SDS011;1433;49.976;8.342;2023-03-14T08:17:01;2.73;;;1.70;;
2850;SDS011;1433;49.976;8.342;2023-03-14T08:19:27;2.90;;;1.37;;
2850;SDS011;1433;49.976;8.342;2023-03-14T08:21:56;3.63;;;1.83;;
2850;SDS011;1433;49.976;8.342;2023-03-14T08:24:22;2.77;;;1.60;;
2850;SDS011;1433;49.976;8.342;2023-03-14T08:26:48;2.20;;;1.70;;
2850;SDS011;1433;49.976;8.342;2023-03-14T08:29:14;2.07;;;1.50;;
2850;SDS011;1433;49.976;8.342;2023-03-14T08:31:41;4.67;;;1.97;;
2850;SDS011;1433;49.976;8.342;2023-03-14T08:34:07;3.27;;;2.17;;
2850;SDS011;1433;49.976;8.342;2023-03-14T08:36:33;3.97;;;1.60;;
2850;SDS011;1433;49.976;8.342;2023-03-14T08:39:00;1.90;;;1.53;;
2850;SDS011;1433;49.976;8.342;2023-03-14T08:41:26;4.80;;;1.60;;
2850;SDS011;1433;49.976;8.342;2023-03-14T08:43:52;2.33;;;1.80;;
2850;SDS011;1433;49.976;8.342;2023-03-14T08:46:18;1.50;;;1.40;;
2850;SDS011;1433;49.976;8.342;2023-03-14T08:48:44;2.40;;;1.60;;
2850;SDS011;1433;49.976;8.342;2023-03-14T08:51:12;2.03;;;1.80;;
2850;SDS011;1433;49.976;8.342;2023-03-14T08:53:39;1.37;;;1.27;;
2850;SDS011;1433;49.976;8.342;2023-03-14T08:56:06;1.67;;;1.53;;
2850;SDS011;1433;49.976;8.342;2023-03-14T08:58:35;2.93;;;1.90;;
2850;SDS011;1433;49.976;8.342;2023-03-14T09:01:04;2.67;;;1.90;;
2850;SDS011;1433;49.976;8.342;2023-03-14T09:03:31;3.23;;;1.73;;
2850;SDS011;1433;49.976;8.342;2023-03-14T09:06:01;3.23;;;2.37;;
2850;SDS011;1433;49.976;8.342;2023-03-14T09:08:30;4.50;;;1.20;;
2850;SDS011;1433;49.976;8.342;2023-03-14T09:10:57;2.00;;;1.50;;
2850;SDS011;1433;49.976;8.342;2023-03-14T09:13:23;2.37;;;1.83;;
2850;SDS011;1433;49.976;8.342;2023-03-14T09:15:50;8.63;;;1.90;;
2850;SDS011;1433;49.976;8.342;2023-03-14T09:18:20;4.03;;;1.67;;
2850;SDS011;1433;49.976;8.342;2023-03-14T09:20:48;3.13;;;1.80;;
2850;SDS011;1433;49.976;8.342;2023-03-14T09:23:15;1.77;;;1.40;;
2850;SDS011;1433;49.976;8.342;2023-03-14T09:25:41;1.97;;;1.63;;
2850;SDS011;1433;49.976;8.342;2023-03-14T09:28:07;3.90;;;2.07;;
2850;SDS011;1433;49.976;8.342;2023-03-14T09:30:33;1.67;;;1.57;;
2850;SDS011;1433;49.976;8.342;2023-03-14T09:33:00;3.60;;;2.10;;
2850;SDS011;1433;49.976;8.342;2023-03-14T09:35:26;2.73;;;1.70;;
2850;SDS011;1433;49.976;8.342;2023-03-14T09:37:52;1.73;;;1.63;;
2850;SDS011;1433;49.976;8.342;2023-03-14T09:40:19;3.87;;;1.50;;
2850;SDS011;1433;49.976;8.342;2023-03-14T09:42:52;1.50;;;1.40;;
2850;SDS011;1433;49.976;8.342;2023-03-14T09:45:25;1.70;;;1.20;;
2850;SDS011;1433;49.976;8.342;2023-03-14T09:47:52;1.70;;;1.60;;
2850;SDS011;1433;49.976;8.342;2023-03-14T09:50:21;2.27;;;1.40;;
2850;SDS011;1433;49.976;8.342;2023-03-14T09:52:48;1.90;;;1.50;;
2850;SDS011;1433;49.976;8.342;2023-03-14T09:55:18;1.27;;;1.17;;
2850;SDS011;1433;49.976;8.342;2023-03-14T09:57:49;1.60;;;1.50;;
2850;SDS011;1433;49.976;8.342;2023-03-14T10:00:20;2.00;;;1.40;;
2850;SDS011;1433;49.976;8.342;2023-03-14T10:02:51;4.17;;;1.60;;
2850;SDS011;1433;49.976;8.342;2023-03-14T10:05:20;2.00;;;1.57;;
2850;SDS011;1433;49.976;8.342;2023-03-14T10:07:48;1.97;;;1.70;;
2850;SDS011;1433;49.976;8.342;2023-03-14T10:10:22;3.63;;;2.10;;
2850;SDS011;1433;49.976;8.342;2023-03-14T10:12:47;4.10;;;1.77;;
2850;SDS011;1433;49.976;8.342;2023-03-14T10:15:32;1.70;;;1.60;;
2850;SDS011;1433;49.976;8.342;2023-03-14T10:18:00;2.80;;;1.47;;
2850;SDS011;1433;49.976;8.342;2023-03-14T10:20:35;1.47;;;1.33;;
2850;SDS011;1433;49.976;8.342;2023-03-14T10:25:43;4.23;;;1.47;;
2850;SDS011;1433;49.976;8.342;2023-03-14T10:28:25;1.63;;;1.10;;
2850;SDS011;1433;49.976;8.342;2023-03-14T10:30:54;1.60;;;1.30;;
2850;SDS011;1433;49.976;8.342;2023-03-14T10:33:27;1.90;;;1.13;;
2850;SDS011;1433;49.976;8.342;2023-03-14T10:38:30;1.50;;;1.40;;
2850;SDS011;1433;49.976;8.342;2023-03-14T10:40:55;1.97;;;1.67;;
2850;SDS011;1433;49.976;8.342;2023-03-14T10:43:30;1.97;;;1.83;;
2850;SDS011;1433;49.976;8.342;2023-03-14T10:46:06;1.40;;;1.30;;
2850;SDS011;1433;49.976;8.342;2023-03-14T10:48:38;1.60;;;1.10;;
2850;SDS011;1433;49.976;8.342;2023-03-14T10:56:33;1.30;;;1.20;;
2850;SDS011;1433;49.976;8.342;2023-03-14T10:59:01;1.70;;;1.30;;
2850;SDS011;1433;49.976;8.342;2023-03-14T11:01:39;1.30;;;1.20;;
2850;SDS011;1433;49.976;8.342;2023-03-14T11:04:23;1.63;;;1.17;;
2850;SDS011;1433;49.976;8.342;2023-03-14T11:07:04;1.73;;;1.07;;
2850;SDS011;1433;49.976;8.342;2023-03-14T11:15:55;3.10;;;1.80;;
2850;SDS011;1433;49.976;8.342;2023-03-14T11:23:08;1.60;;;1.20;;
2850;SDS011;1433;49.976;8.342;2023-03-14T11:25:43;3.00;;;1.70;;
2850;SDS011;1433;49.976;8.342;2023-03-14T11:28:26;1.57;;;1.00;;
2850;SDS011;1433;49.976;8.342;2023-03-14T11:33:47;1.73;;;1.37;;
2850;SDS011;1433;49.976;8.342;2023-03-14T11:36:20;1.20;;;1.10;;
2850;SDS011;1433;49.976;8.342;2023-03-14T11:38:48;3.63;;;1.30;;
2850;SDS011;1433;49.976;8.342;2023-03-14T11:41:19;1.10;;;1.00;;
2850;SDS011;1433;49.976;8.342;2023-03-14T11:43:48;1.30;;;1.20;;
2850;SDS011;1433;49.976;8.342;2023-03-14T11:46:21;1.60;;;1.30;;
2850;SDS011;1433;49.976;8.342;2023-03-14T11:51:21;1.10;;;1.00;;
2850;SDS011;1433;49.976;8.342;2023-03-14T11:54:01;2.70;;;0.90;;
2850;SDS011;1433;49.976;8.342;2023-03-14T11:57:09;1.13;;;0.80;;
2850;SDS011;1433;49.976;8.342;2023-03-14T11:59:37;0.97;;;0.80;;
2850;SDS011;1433;49.976;8.342;2023-03-14T12:02:31;1.37;;;0.90;;
2850;SDS011;1433;49.976;8.342;2023-03-14T12:10:46;1.10;;;0.80;;
2850;SDS011;1433;49.976;8.342;2023-03-14T12:13:17;3.47;;;0.80;;
2850;SDS011;1433;49.976;8.342;2023-03-14T12:15:55;1.00;;;0.80;;
2850;SDS011;1433;49.976;8.342;2023-03-14T12:18:27;1.00;;;0.87;;
2850;SDS011;1433;49.976;8.342;2023-03-14T12:20:58;1.00;;;0.80;;
2850;SDS011;1433;49.976;8.342;2023-03-14T12:23:27;1.00;;;0.73;;
2850;SDS011;1433;49.976;8.342;2023-03-14T12:28:49;0.90;;;0.70;;
2850;SDS011;1433;49.976;8.342;2023-03-14T12:42:17;0.90;;;0.80;;
2850;SDS011;1433;49.976;8.342;2023-03-14T12:44:48;1.00;;;0.80;;
2850;SDS011;1433;49.976;8.342;2023-03-14T12:49:51;1.40;;;0.87;;
2850;SDS011;1433;49.976;8.342;2023-03-14T12:52:22;0.90;;;0.80;;
2850;SDS011;1433;49.976;8.342;2023-03-14T12:55:02;1.43;;;0.90;;
2850;SDS011;1433;49.976;8.342;2023-03-14T12:57:35;3.00;;;1.40;;
2850;SDS011;1433;49.976;8.342;2023-03-14T13:00:23;1.40;;;1.00;;
2850;SDS011;1433;49.976;8.342;2023-03-14T13:03:17;2.20;;;1.00;;
2850;SDS011;1433;49.976;8.342;2023-03-14T13:05:57;1.40;;;1.03;;
2850;SDS011;1433;49.976;8.342;2023-03-14T13:08:41;1.87;;;1.00;;
2850;SDS011;1433;49.976;8.342;2023-03-14T13:11:10;1.10;;;0.80;;
2850;SDS011;1433;49.976;8.342;2023-03-14T13:13:47;1.87;;;1.00;;
2850;SDS011;1433;49.976;8.342;2023-03-14T13:16:40;1.50;;;0.80;;
2850;SDS011;1433;49.976;8.342;2023-03-14T13:19:14;1.63;;;0.93;;
2850;SDS011;1433;49.976;8.342;2023-03-14T13:21:41;2.20;;;0.90;;
2850;SDS011;1433;49.976;8.342;2023-03-14T13:24:20;3.47;;;1.20;;
2850;SDS011;1433;49.976;8.342;2023-03-14T13:26:49;1.83;;;1.10;;
2850;SDS011;1433;49.976;8.342;2023-03-14T13:29:28;1.37;;;1.00;;
2850;SDS011;1433;49.976;8.342;2023-03-14T13:32:00;1.00;;;0.90;;
2850;SDS011;1433;49.976;8.342;2023-03-14T13:34:29;2.03;;;1.50;;
2850;SDS011;1433;49.976;8.342;2023-03-14T13:36:57;2.03;;;1.23;;
2850;SDS011;1433;49.976;8.342;2023-03-14T13:39:24;1.57;;;1.00;;
2850;SDS011;1433;49.976;8.342;2023-03-14T13:41:54;1.80;;;1.20;;
2850;SDS011;1433;49.976;8.342;2023-03-14T13:46:58;2.13;;;1.00;;
2850;SDS011;1433;49.976;8.342;2023-03-14T13:49:26;1.93;;;1.10;;
2850;SDS011;1433;49.976;8.342;2023-03-14T13:51:56;2.37;;;1.43;;
2850;SDS011;1433;49.976;8.342;2023-03-14T13:54:23;3.03;;;1.40;;
2850;SDS011;1433;49.976;8.342;2023-03-14T13:57:02;1.20;;;1.10;;
2850;SDS011;1433;49.976;8.342;2023-03-14T13:59:31;1.83;;;1.47;;
2850;SDS011;1433;49.976;8.342;2023-03-14T14:01:59;3.60;;;1.60;;
2850;SDS011;1433;49.976;8.342;2023-03-14T14:04:28;1.40;;;1.13;;
2850;SDS011;1433;49.976;8.342;2023-03-14T14:06:57;1.90;;;1.70;;
2850;SDS011;1433;49.976;8.342;2023-03-14T14:09:26;2.07;;;1.23;;
2850;SDS011;1433;49.976;8.342;2023-03-14T14:11:55;3.57;;;1.63;;
2850;SDS011;1433;49.976;8.342;2023-03-14T14:14:32;1.40;;;1.30;;
2850;SDS011;1433;49.976;8.342;2023-03-14T14:16:57;1.60;;;1.37;;
2850;SDS011;1433;49.976;8.342;2023-03-14T14:19:25;1.90;;;1.43;;
2850;SDS011;1433;49.976;8.342;2023-03-14T14:21:54;1.63;;;1.20;;
2850;SDS011;1433;49.976;8.342;2023-03-14T14:24:21;1.50;;;1.40;;
2850;SDS011;1433;49.976;8.342;2023-03-14T14:26:51;3.00;;;1.43;;
2850;SDS011;1433;49.976;8.342;2023-03-14T14:29:29;2.30;;;1.57;;
2850;SDS011;1433;49.976;8.342;2023-03-14T14:32:01;2.37;;;1.40;;
2850;SDS011;1433;49.976;8.342;2023-03-14T14:34:32;1.73;;;1.20;;
2850;SDS011;1433;49.976;8.342;2023-03-14T14:37:22;2.10;;;1.40;;
2850;SDS011;1433;49.976;8.342;2023-03-14T14:39:51;1.73;;;1.57;;
2850;SDS011;1433;49.976;8.342;2023-03-14T14:42:24;4.20;;;1.57;;
2850;SDS011;1433;49.976;8.342;2023-03-14T14:44:51;3.10;;;1.60;;
2850;SDS011;1433;49.976;8.342;2023-03-14T14:47:24;1.50;;;1.40;;
2850;SDS011;1433;49.976;8.342;2023-03-14T14:49:49;3.63;;;1.47;;
2850;SDS011;1433;49.976;8.342;2023-03-14T14:52:18;1.67;;;1.20;;
2850;SDS011;1433;49.976;8.342;2023-03-14T14:54:47;1.87;;;1.37;;
2850;SDS011;1433;49.976;8.342;2023-03-14T14:57:25;1.77;;;1.50;;
2850;SDS011;1433;49.976;8.342;2023-03-14T15:00:02;1.63;;;1.20;;
2850;SDS011;1433;49.976;8.342;2023-03-14T15:05:20;2.50;;;1.37;;
2850;SDS011;1433;49.976;8.342;2023-03-14T15:07:44;1.20;;;1.10;;
2850;SDS011;1433;49.976;8.342;2023-03-14T15:10:19;1.30;;;1.20;;
2850;SDS011;1433;49.976;8.342;2023-03-14T15:12:43;1.90;;;1.07;;
2850;SDS011;1433;49.976;8.342;2023-03-14T15:15:09;1.20;;;1.10;;
2850;SDS011;1433;49.976;8.342;2023-03-14T15:17:37;1.50;;;1.10;;
2850;SDS011;1433;49.976;8.342;2023-03-14T15:20:04;1.60;;;1.50;;
2850;SDS011;1433;49.976;8.342;2023-03-14T15:22:32;1.23;;;1.10;;
2850;SDS011;1433;49.976;8.342;2023-03-14T15:24:58;1.60;;;1.30;;
2850;SDS011;1433;49.976;8.342;2023-03-14T15:27:24;2.10;;;1.80;;
2850;SDS011;1433;49.976;8.342;2023-03-14T15:29:51;1.47;;;1.30;;
2850;SDS011;1433;49.976;8.342;2023-03-14T15:32:17;2.03;;;1.40;;
2850;SDS011;1433;49.976;8.342;2023-03-14T15:34:44;1.90;;;1.27;;
2850;SDS011;1433;49.976;8.342;2023-03-14T15:37:14;3.97;;;3.67;;
2850;SDS011;1433;49.976;8.342;2023-03-14T15:39:42;1.40;;;1.27;;
2850;SDS011;1433;49.976;8.342;2023-03-14T15:42:09;1.40;;;1.20;;
2850;SDS011;1433;49.976;8.342;2023-03-14T15:44:35;1.27;;;1.00;;
2850;SDS011;1433;49.976;8.342;2023-03-14T15:47:01;2.23;;;1.30;;
2850;SDS011;1433;49.976;8.342;2023-03-14T15:49:28;2.23;;;1.17;;
2850;SDS011;1433;49.976;8.342;2023-03-14T15:51:55;2.30;;;1.50;;
2850;SDS011;1433;49.976;8.342;2023-03-14T15:54:21;2.90;;;2.07;;
2850;SDS011;1433;49.976;8.342;2023-03-14T15:56:48;1.50;;;1.20;;
2850;SDS011;1433;49.976;8.342;2023-03-14T15:59:14;3.40;;;1.53;;
2850;SDS011;1433;49.976;8.342;2023-03-14T16:01:40;1.57;;;1.47;;
2850;SDS011;1433;49.976;8.342;2023-03-14T16:04:06;1.30;;;1.20;;
2850;SDS011;1433;49.976;8.342;2023-03-14T16:06:33;1.70;;;1.50;;
2850;SDS011;1433;49.976;8.342;2023-03-14T16:09:01;1.63;;;1.40;;
2850;SDS011;1433;49.976;8.342;2023-03-14T16:11:29;1.77;;;1.40;;
2850;SDS011;1433;49.976;8.342;2023-03-14T16:13:55;1.67;;;1.57;;
2850;SDS011;1433;49.976;8.342;2023-03-14T16:16:21;1.60;;;1.50;;
2850;SDS011;1433;49.976;8.342;2023-03-14T16:18:47;1.30;;;1.10;;
2850;SDS011;1433;49.976;8.342;2023-03-14T16:21:14;1.47;;;1.37;;
2850;SDS011;1433;49.976;8.342;2023-03-14T16:23:42;1.57;;;1.37;;
2850;SDS011;1433;49.976;8.342;2023-03-14T16:26:10;2.27;;;1.80;;
2850;SDS011;1433;49.976;8.342;2023-03-14T16:28:38;1.40;;;1.30;;
2850;SDS011;1433;49.976;8.342;2023-03-14T16:31:09;2.83;;;1.50;;
2850;SDS011;1433;49.976;8.342;2023-03-14T16:33:49;1.83;;;1.73;;